sensor_id;sensor_type;location;lat;lon;timestamp;P1;durP1;ratioP1;P2;durP2;ratioP2
73084;SDS011;62974;49.460;10.892;2022-11-15T00:00:47;8.88;;;3.80;;
73084;SDS011;62974;49.460;10.892;2022-11-15T00:03:15;6.90;;;2.95;;
73084;SDS011;62974;49.460;10.892;2022-11-15T00:05:43;7.15;;;3.30;;
73084;SDS011;62974;49.460;10.892;2022-11-15T00:08:11;6.78;;;3.08;;
73084;SDS011;62974;49.460;10.892;2022-11-15T00:10:38;5.35;;;3.03;;
73084;SDS011;62974;49.460;10.892;2022-11-15T00:13:06;6.18;;;2.75;;
73084;SDS011;62974;49.460;10.892;2022-11-15T00:15:35;5.35;;;3.38;;
73084;SDS011;62974;49.460;10.892;2022-11-15T00:18:04;6.78;;;3.20;;
73084;SDS011;62974;49.460;10.892;2022-11-15T00:20:33;10.52;;;3.13;;
73084;SDS011;62974;49.460;10.892;2022-11-15T00:23:02;6.35;;;2.95;;
73084;SDS011;62974;49.460;10.892;2022-11-15T00:25:30;8.23;;;3.42;;
73084;SDS011;62974;49.460;10.892;2022-11-15T00:27:58;5.45;;;2.70;;
73084;SDS011;62974;49.460;10.892;2022-11-15T00:30:26;5.97;;;2.80;;
73084;SDS011;62974;49.460;10.892;2022-11-15T00:32:54;6.13;;;2.67;;
73084;SDS011;62974;49.460;10.892;2022-11-15T00:35:23;5.80;;;3.35;;
73084;SDS011;62974;49.460;10.892;2022-11-15T00:37:50;6.28;;;2.95;;
73084;SDS011;62974;49.460;10.892;2022-11-15T00:40:19;6.15;;;2.65;;
73084;SDS011;62974;49.460;10.892;2022-11-15T00:42:47;6.28;;;3.00;;
73084;SDS011;62974;49.460;10.892;2022-11-15T00:45:14;7.07;;;3.42;;
73084;SDS011;62974;49.460;10.892;2022-11-15T00:47:43;6.53;;;2.85;;
73084;SDS011;62974;49.460;10.892;2022-11-15T00:50:11;7.18;;;3.45;;
73084;SDS011;62974;49.460;10.892;2022-11-15T00:52:42;6.95;;;3.55;;
73084;SDS011;62974;49.460;10.892;2022-11-15T00:55:09;4.93;;;2.50;;
73084;SDS011;62974;49.460;10.892;2022-11-15T00:57:41;5.43;;;2.65;;
73084;SDS011;62974;49.460;10.892;2022-11-15T01:00:08;4.57;;;2.55;;
73084;SDS011;62974;49.460;10.892;2022-11-15T01:02:37;5.43;;;2.65;;
73084;SDS011;62974;49.460;10.892;2022-11-15T01:05:04;5.70;;;2.53;;
73084;SDS011;62974;49.460;10.892;2022-11-15T01:07:32;4.07;;;2.38;;
73084;SDS011;62974;49.460;10.892;2022-11-15T01:10:01;6.93;;;2.67;;
73084;SDS011;62974;49.460;10.892;2022-11-15T01:12:29;5.32;;;3.30;;
73084;SDS011;62974;49.460;10.892;2022-11-15T01:14:57;5.68;;;2.72;;
73084;SDS011;62974;49.460;10.892;2022-11-15T01:17:24;4.45;;;2.53;;
73084;SDS011;62974;49.460;10.892;2022-11-15T01:19:52;4.28;;;2.58;;
73084;SDS011;62974;49.460;10.892;2022-11-15T01:22:19;5.55;;;2.60;;
73084;SDS011;62974;49.460;10.892;2022-11-15T01:24:48;4.75;;;2.38;;
73084;SDS011;62974;49.460;10.892;2022-11-15T01:27:17;6.55;;;3.13;;
73084;SDS011;62974;49.460;10.892;2022-11-15T01:29:45;5.43;;;2.80;;
73084;SDS011;62974;49.460;10.892;2022-11-15T01:32:12;4.80;;;2.45;;
73084;SDS011;62974;49.460;10.892;2022-11-15T01:34:40;5.80;;;2.92;;
73084;SDS011;62974;49.460;10.892;2022-11-15T01:37:07;7.40;;;3.13;;
73084;SDS011;62974;49.460;10.892;2022-11-15T01:39:35;4.82;;;2.38;;
73084;SDS011;62974;49.460;10.892;2022-11-15T01:42:02;4.80;;;2.20;;
73084;SDS011;62974;49.460;10.892;2022-11-15T01:44:39;4.50;;;2.47;;
73084;SDS011;62974;49.460;10.892;2022-11-15T01:47:10;5.20;;;2.70;;
73084;SDS011;62974;49.460;10.892;2022-11-15T01:49:45;6.10;;;3.08;;
73084;SDS011;62974;49.460;10.892;2022-11-15T01:52:19;4.82;;;2.53;;
73084;SDS011;62974;49.460;10.892;2022-11-15T01:54:50;4.95;;;2.90;;
73084;SDS011;62974;49.460;10.892;2022-11-15T01:57:21;6.38;;;3.30;;
73084;SDS011;62974;49.460;10.892;2022-11-15T01:59:53;9.45;;;3.30;;
73084;SDS011;62974;49.460;10.892;2022-11-15T02:02:21;5.90;;;2.80;;
73084;SDS011;62974;49.460;10.892;2022-11-15T02:04:49;6.50;;;2.83;;
73084;SDS011;62974;49.460;10.892;2022-11-15T02:07:16;5.90;;;3.15;;
73084;SDS011;62974;49.460;10.892;2022-11-15T02:09:46;7.35;;;4.10;;
73084;SDS011;62974;49.460;10.892;2022-11-15T02:12:15;3.85;;;2.38;;
73084;SDS011;62974;49.460;10.892;2022-11-15T02:14:46;4.75;;;2.88;;
73084;SDS011;62974;49.460;10.892;2022-11-15T02:17:23;7.93;;;3.45;;
73084;SDS011;62974;49.460;10.892;2022-11-15T02:23:15;4.05;;;2.42;;
73084;SDS011;62974;49.460;10.892;2022-11-15T02:26:14;6.50;;;3.58;;
73084;SDS011;62974;49.460;10.892;2022-11-15T02:28:59;7.03;;;3.33;;
73084;SDS011;62974;49.460;10.892;2022-11-15T02:31:33;4.88;;;2.78;;
73084;SDS011;62974;49.460;10.892;2022-11-15T02:34:08;6.95;;;3.17;;
73084;SDS011;62974;49.460;10.892;2022-11-15T02:39:18;4.63;;;2.58;;
73084;SDS011;62974;49.460;10.892;2022-11-15T02:41:54;4.88;;;2.78;;
73084;SDS011;62974;49.460;10.892;2022-11-15T02:44:30;6.63;;;3.55;;
73084;SDS011;62974;49.460;10.892;2022-11-15T02:47:03;4.63;;;2.53;;
73084;SDS011;62974;49.460;10.892;2022-11-15T02:49:41;6.88;;;3.33;;
73084;SDS011;62974;49.460;10.892;2022-11-15T02:52:14;5.00;;;2.88;;
73084;SDS011;62974;49.460;10.892;2022-11-15T02:54:42;6.18;;;3.25;;
73084;SDS011;62974;49.460;10.892;2022-11-15T02:57:11;5.60;;;3.17;;
73084;SDS011;62974;49.460;10.892;2022-11-15T03:02:38;5.78;;;2.58;;
73084;SDS011;62974;49.460;10.892;2022-11-15T03:05:15;5.47;;;2.67;;
73084;SDS011;62974;49.460;10.892;2022-11-15T03:07:51;4.90;;;2.47;;
73084;SDS011;62974;49.460;10.892;2022-11-15T03:10:31;7.25;;;3.30;;
73084;SDS011;62974;49.460;10.892;2022-11-15T03:13:04;6.35;;;2.92;;
73084;SDS011;62974;49.460;10.892;2022-11-15T03:15:42;4.22;;;2.55;;
73084;SDS011;62974;49.460;10.892;2022-11-15T03:18:19;6.15;;;3.08;;
73084;SDS011;62974;49.460;10.892;2022-11-15T03:20:50;7.82;;;2.97;;
73084;SDS011;62974;49.460;10.892;2022-11-15T03:23:18;4.70;;;2.45;;
73084;SDS011;62974;49.460;10.892;2022-11-15T03:25:47;6.45;;;3.30;;
73084;SDS011;62974;49.460;10.892;2022-11-15T03:28:18;7.30;;;3.65;;
73084;SDS011;62974;49.460;10.892;2022-11-15T03:30:49;5.55;;;2.65;;
73084;SDS011;62974;49.460;10.892;2022-11-15T03:33:21;9.55;;;3.20;;
73084;SDS011;62974;49.460;10.892;2022-11-15T03:38:17;6.60;;;2.97;;
73084;SDS011;62974;49.460;10.892;2022-11-15T03:40:51;4.88;;;3.10;;
73084;SDS011;62974;49.460;10.892;2022-11-15T03:43:24;6.15;;;2.83;;
73084;SDS011;62974;49.460;10.892;2022-11-15T03:45:59;5.00;;;3.33;;
73084;SDS011;62974;49.460;10.892;2022-11-15T03:48:35;5.57;;;3.30;;
73084;SDS011;62974;49.460;10.892;2022-11-15T03:51:07;6.00;;;3.28;;
73084;SDS011;62974;49.460;10.892;2022-11-15T03:53:34;10.63;;;4.05;;
73084;SDS011;62974;49.460;10.892;2022-11-15T03:56:02;5.65;;;3.22;;
73084;SDS011;62974;49.460;10.892;2022-11-15T03:58:30;6.78;;;3.08;;
73084;SDS011;62974;49.460;10.892;2022-11-15T04:00:57;7.15;;;3.63;;
73084;SDS011;62974;49.460;10.892;2022-11-15T04:03:25;5.47;;;2.75;;
73084;SDS011;62974;49.460;10.892;2022-11-15T04:05:54;7.32;;;3.05;;
73084;SDS011;62974;49.460;10.892;2022-11-15T04:08:21;6.03;;;3.25;;
73084;SDS011;62974;49.460;10.892;2022-11-15T04:10:49;7.10;;;3.40;;
73084;SDS011;62974;49.460;10.892;2022-11-15T04:13:17;7.03;;;3.50;;
73084;SDS011;62974;49.460;10.892;2022-11-15T04:15:44;6.63;;;2.78;;
73084;SDS011;62974;49.460;10.892;2022-11-15T04:18:11;5.35;;;2.97;;
73084;SDS011;62974;49.460;10.892;2022-11-15T04:20:39;5.28;;;2.97;;
73084;SDS011;62974;49.460;10.892;2022-11-15T04:23:25;5.20;;;2.85;;
73084;SDS011;62974;49.460;10.892;2022-11-15T04:26:11;4.05;;;2.28;;
73084;SDS011;62974;49.460;10.892;2022-11-15T04:28:43;6.70;;;2.97;;
73084;SDS011;62974;49.460;10.892;2022-11-15T04:31:24;7.68;;;2.72;;
73084;SDS011;62974;49.460;10.892;2022-11-15T04:33:51;5.88;;;2.88;;
73084;SDS011;62974;49.460;10.892;2022-11-15T04:36:19;8.25;;;3.08;;
73084;SDS011;62974;49.460;10.892;2022-11-15T04:39:06;5.72;;;2.42;;
73084;SDS011;62974;49.460;10.892;2022-11-15T04:41:34;6.53;;;3.10;;
73084;SDS011;62974;49.460;10.892;2022-11-15T04:44:02;5.55;;;2.70;;
73084;SDS011;62974;49.460;10.892;2022-11-15T04:46:29;5.63;;;2.83;;
73084;SDS011;62974;49.460;10.892;2022-11-15T04:48:57;7.35;;;3.10;;
73084;SDS011;62974;49.460;10.892;2022-11-15T04:51:24;4.65;;;2.45;;
73084;SDS011;62974;49.460;10.892;2022-11-15T04:53:52;6.43;;;3.08;;
73084;SDS011;62974;49.460;10.892;2022-11-15T04:56:21;6.82;;;2.90;;
73084;SDS011;62974;49.460;10.892;2022-11-15T04:58:48;4.97;;;2.95;;
73084;SDS011;62974;49.460;10.892;2022-11-15T05:01:16;6.05;;;3.08;;
73084;SDS011;62974;49.460;10.892;2022-11-15T05:03:44;5.32;;;2.83;;
73084;SDS011;62974;49.460;10.892;2022-11-15T05:06:30;5.45;;;2.47;;
73084;SDS011;62974;49.460;10.892;2022-11-15T05:08:57;4.57;;;2.30;;
73084;SDS011;62974;49.460;10.892;2022-11-15T05:11:27;6.97;;;3.17;;
73084;SDS011;62974;49.460;10.892;2022-11-15T05:13:54;3.75;;;1.67;;
73084;SDS011;62974;49.460;10.892;2022-11-15T05:16:22;6.45;;;3.10;;
73084;SDS011;62974;49.460;10.892;2022-11-15T05:18:50;6.18;;;2.40;;
73084;SDS011;62974;49.460;10.892;2022-11-15T05:21:18;5.75;;;2.85;;
73084;SDS011;62974;49.460;10.892;2022-11-15T05:23:45;4.72;;;2.47;;
73084;SDS011;62974;49.460;10.892;2022-11-15T05:26:14;6.45;;;2.33;;
73084;SDS011;62974;49.460;10.892;2022-11-15T05:28:44;4.78;;;2.63;;
73084;SDS011;62974;49.460;10.892;2022-11-15T05:31:12;5.22;;;2.38;;
73084;SDS011;62974;49.460;10.892;2022-11-15T05:33:42;4.82;;;2.95;;
73084;SDS011;62974;49.460;10.892;2022-11-15T05:36:12;5.68;;;2.67;;
73084;SDS011;62974;49.460;10.892;2022-11-15T05:38:44;8.90;;;2.72;;
73084;SDS011;62974;49.460;10.892;2022-11-15T05:41:12;3.95;;;2.13;;
73084;SDS011;62974;49.460;10.892;2022-11-15T05:43:41;6.18;;;2.58;;
73084;SDS011;62974;49.460;10.892;2022-11-15T05:48:40;4.68;;;2.03;;
73084;SDS011;62974;49.460;10.892;2022-11-15T05:51:11;5.07;;;2.42;;
73084;SDS011;62974;49.460;10.892;2022-11-15T05:53:42;6.10;;;2.50;;
73084;SDS011;62974;49.460;10.892;2022-11-15T05:56:10;6.22;;;2.88;;
73084;SDS011;62974;49.460;10.892;2022-11-15T05:58:39;7.07;;;3.08;;
73084;SDS011;62974;49.460;10.892;2022-11-15T06:01:06;4.47;;;2.13;;
73084;SDS011;62974;49.460;10.892;2022-11-15T06:03:35;5.43;;;2.85;;
73084;SDS011;62974;49.460;10.892;2022-11-15T06:06:03;4.43;;;2.50;;
73084;SDS011;62974;49.460;10.892;2022-11-15T06:08:30;5.15;;;2.55;;
73084;SDS011;62974;49.460;10.892;2022-11-15T06:11:04;5.88;;;2.95;;
73084;SDS011;62974;49.460;10.892;2022-11-15T06:13:31;5.25;;;2.50;;
73084;SDS011;62974;49.460;10.892;2022-11-15T06:15:59;6.72;;;2.67;;
73084;SDS011;62974;49.460;10.892;2022-11-15T06:18:27;4.10;;;2.70;;
73084;SDS011;62974;49.460;10.892;2022-11-15T06:20:59;3.88;;;2.58;;
73084;SDS011;62974;49.460;10.892;2022-11-15T06:23:27;7.07;;;2.65;;
73084;SDS011;62974;49.460;10.892;2022-11-15T06:25:58;3.17;;;2.20;;
73084;SDS011;62974;49.460;10.892;2022-11-15T06:28:27;4.93;;;2.85;;
73084;SDS011;62974;49.460;10.892;2022-11-15T06:30:55;3.40;;;2.20;;
73084;SDS011;62974;49.460;10.892;2022-11-15T06:33:23;9.00;;;3.40;;
73084;SDS011;62974;49.460;10.892;2022-11-15T06:35:50;6.03;;;2.80;;
73084;SDS011;62974;49.460;10.892;2022-11-15T06:38:19;5.35;;;2.90;;
73084;SDS011;62974;49.460;10.892;2022-11-15T06:40:46;5.10;;;3.05;;
73084;SDS011;62974;49.460;10.892;2022-11-15T06:43:14;5.75;;;2.65;;
73084;SDS011;62974;49.460;10.892;2022-11-15T06:45:41;4.78;;;2.38;;
73084;SDS011;62974;49.460;10.892;2022-11-15T06:48:09;3.97;;;2.22;;
73084;SDS011;62974;49.460;10.892;2022-11-15T06:50:36;4.68;;;2.22;;
73084;SDS011;62974;49.460;10.892;2022-11-15T06:53:04;1.75;;;0.88;;
73084;SDS011;62974;49.460;10.892;2022-11-15T06:55:32;6.65;;;3.00;;
73084;SDS011;62974;49.460;10.892;2022-11-15T06:58:00;5.20;;;2.90;;
73084;SDS011;62974;49.460;10.892;2022-11-15T07:00:27;6.78;;;3.33;;
73084;SDS011;62974;49.460;10.892;2022-11-15T07:02:56;6.18;;;3.88;;
73084;SDS011;62974;49.460;10.892;2022-11-15T07:05:26;5.38;;;3.35;;
73084;SDS011;62974;49.460;10.892;2022-11-15T07:07:54;9.75;;;4.10;;
73084;SDS011;62974;49.460;10.892;2022-11-15T07:10:23;6.35;;;3.28;;
73084;SDS011;62974;49.460;10.892;2022-11-15T07:12:53;5.47;;;2.72;;
73084;SDS011;62974;49.460;10.892;2022-11-15T07:15:22;4.80;;;2.83;;
73084;SDS011;62974;49.460;10.892;2022-11-15T07:17:51;6.78;;;3.22;;
73084;SDS011;62974;49.460;10.892;2022-11-15T07:20:19;5.93;;;4.18;;
73084;SDS011;62974;49.460;10.892;2022-11-15T07:22:46;4.80;;;3.20;;
73084;SDS011;62974;49.460;10.892;2022-11-15T07:25:13;5.68;;;2.72;;
73084;SDS011;62974;49.460;10.892;2022-11-15T07:27:41;6.95;;;3.45;;
73084;SDS011;62974;49.460;10.892;2022-11-15T07:30:11;4.68;;;2.05;;
73084;SDS011;62974;49.460;10.892;2022-11-15T07:32:40;2.15;;;1.30;;
73084;SDS011;62974;49.460;10.892;2022-11-15T07:35:08;5.07;;;2.70;;
73084;SDS011;62974;49.460;10.892;2022-11-15T07:37:35;5.63;;;2.03;;
73084;SDS011;62974;49.460;10.892;2022-11-15T07:40:03;5.63;;;3.10;;
73084;SDS011;62974;49.460;10.892;2022-11-15T07:42:31;4.82;;;2.83;;
73084;SDS011;62974;49.460;10.892;2022-11-15T07:45:18;3.13;;;2.35;;
73084;SDS011;62974;49.460;10.892;2022-11-15T07:47:45;5.10;;;2.33;;
73084;SDS011;62974;49.460;10.892;2022-11-15T07:50:13;5.70;;;2.58;;
73084;SDS011;62974;49.460;10.892;2022-11-15T07:52:41;5.30;;;3.00;;
73084;SDS011;62974;49.460;10.892;2022-11-15T07:55:08;6.60;;;3.63;;
73084;SDS011;62974;49.460;10.892;2022-11-15T07:57:36;6.07;;;3.28;;
73084;SDS011;62974;49.460;10.892;2022-11-15T08:00:04;5.93;;;3.42;;
73084;SDS011;62974;49.460;10.892;2022-11-15T08:02:34;6.60;;;3.10;;
73084;SDS011;62974;49.460;10.892;2022-11-15T08:07:30;3.03;;;1.95;;
73084;SDS011;62974;49.460;10.892;2022-11-15T08:09:58;6.35;;;2.55;;
73084;SDS011;62974;49.460;10.892;2022-11-15T08:14:54;7.82;;;2.78;;
73084;SDS011;62974;49.460;10.892;2022-11-15T08:17:22;5.55;;;2.65;;
73084;SDS011;62974;49.460;10.892;2022-11-15T08:19:51;6.75;;;3.78;;
73084;SDS011;62974;49.460;10.892;2022-11-15T08:22:19;6.95;;;4.10;;
73084;SDS011;62974;49.460;10.892;2022-11-15T08:24:46;6.25;;;3.00;;
73084;SDS011;62974;49.460;10.892;2022-11-15T08:27:14;5.72;;;3.25;;
73084;SDS011;62974;49.460;10.892;2022-11-15T08:29:42;9.68;;;4.93;;
73084;SDS011;62974;49.460;10.892;2022-11-15T08:32:10;9.65;;;5.30;;
73084;SDS011;62974;49.460;10.892;2022-11-15T08:34:38;7.63;;;4.15;;
73084;SDS011;62974;49.460;10.892;2022-11-15T08:37:07;7.47;;;3.65;;
73084;SDS011;62974;49.460;10.892;2022-11-15T08:39:34;9.82;;;4.43;;
73084;SDS011;62974;49.460;10.892;2022-11-15T08:42:02;6.82;;;3.92;;
73084;SDS011;62974;49.460;10.892;2022-11-15T08:44:29;8.95;;;4.38;;
73084;SDS011;62974;49.460;10.892;2022-11-15T08:46:57;9.45;;;4.18;;
73084;SDS011;62974;49.460;10.892;2022-11-15T08:49:24;8.90;;;3.53;;
73084;SDS011;62974;49.460;10.892;2022-11-15T08:51:51;7.65;;;4.22;;
73084;SDS011;62974;49.460;10.892;2022-11-15T08:54:20;7.60;;;4.18;;
73084;SDS011;62974;49.460;10.892;2022-11-15T08:56:48;6.55;;;3.35;;
73084;SDS011;62974;49.460;10.892;2022-11-15T08:59:15;5.10;;;3.33;;
73084;SDS011;62974;49.460;10.892;2022-11-15T09:01:43;7.97;;;3.13;;
73084;SDS011;62974;49.460;10.892;2022-11-15T09:04:11;8.38;;;4.65;;
73084;SDS011;62974;49.460;10.892;2022-11-15T09:06:38;7.97;;;4.18;;
73084;SDS011;62974;49.460;10.892;2022-11-15T09:09:08;13.35;;;3.95;;
73084;SDS011;62974;49.460;10.892;2022-11-15T09:11:37;8.43;;;3.70;;
73084;SDS011;62974;49.460;10.892;2022-11-15T09:14:04;5.30;;;3.10;;
73084;SDS011;62974;49.460;10.892;2022-11-15T09:16:32;6.00;;;3.40;;
73084;SDS011;62974;49.460;10.892;2022-11-15T09:19:00;9.40;;;3.25;;
73084;SDS011;62974;49.460;10.892;2022-11-15T09:21:35;4.03;;;2.47;;
73084;SDS011;62974;49.460;10.892;2022-11-15T09:24:03;6.43;;;2.58;;
73084;SDS011;62974;49.460;10.892;2022-11-15T09:26:30;6.78;;;3.63;;
73084;SDS011;62974;49.460;10.892;2022-11-15T09:28:59;8.98;;;4.18;;
73084;SDS011;62974;49.460;10.892;2022-11-15T09:31:27;8.93;;;3.33;;
73084;SDS011;62974;49.460;10.892;2022-11-15T09:33:55;7.90;;;3.58;;
73084;SDS011;62974;49.460;10.892;2022-11-15T09:36:23;3.85;;;2.30;;
73084;SDS011;62974;49.460;10.892;2022-11-15T09:38:51;5.60;;;3.25;;
73084;SDS011;62974;49.460;10.892;2022-11-15T09:41:34;7.78;;;3.28;;
73084;SDS011;62974;49.460;10.892;2022-11-15T09:44:19;7.32;;;3.90;;
73084;SDS011;62974;49.460;10.892;2022-11-15T09:46:59;7.10;;;3.65;;
73084;SDS011;62974;49.460;10.892;2022-11-15T09:49:32;8.38;;;4.00;;
73084;SDS011;62974;49.460;10.892;2022-11-15T09:52:00;8.57;;;3.88;;
73084;SDS011;62974;49.460;10.892;2022-11-15T09:54:28;8.02;;;4.00;;
73084;SDS011;62974;49.460;10.892;2022-11-15T09:57:19;9.32;;;3.90;;
73084;SDS011;62974;49.460;10.892;2022-11-15T09:59:53;6.70;;;2.88;;
73084;SDS011;62974;49.460;10.892;2022-11-15T10:02:51;4.85;;;2.97;;
73084;SDS011;62974;49.460;10.892;2022-11-15T10:05:28;5.80;;;2.90;;
73084;SDS011;62974;49.460;10.892;2022-11-15T10:07:57;6.38;;;3.47;;
73084;SDS011;62974;49.460;10.892;2022-11-15T10:10:32;10.30;;;4.30;;
73084;SDS011;62974;49.460;10.892;2022-11-15T10:13:06;6.97;;;3.15;;
73084;SDS011;62974;49.460;10.892;2022-11-15T10:15:42;4.80;;;3.08;;
73084;SDS011;62974;49.460;10.892;2022-11-15T10:18:14;6.15;;;3.28;;
73084;SDS011;62974;49.460;10.892;2022-11-15T10:20:48;5.68;;;2.75;;
73084;SDS011;62974;49.460;10.892;2022-11-15T10:23:17;2.95;;;1.25;;
73084;SDS011;62974;49.460;10.892;2022-11-15T10:25:47;4.03;;;2.35;;
73084;SDS011;62974;49.460;10.892;2022-11-15T10:28:21;5.05;;;2.45;;
73084;SDS011;62974;49.460;10.892;2022-11-15T10:30:52;3.97;;;2.20;;
73084;SDS011;62974;49.460;10.892;2022-11-15T10:33:26;4.75;;;2.33;;
73084;SDS011;62974;49.460;10.892;2022-11-15T10:36:16;5.93;;;2.83;;
73084;SDS011;62974;49.460;10.892;2022-11-15T10:38:53;6.75;;;2.80;;
73084;SDS011;62974;49.460;10.892;2022-11-15T10:41:28;5.93;;;2.92;;
73084;SDS011;62974;49.460;10.892;2022-11-15T10:46:31;4.43;;;2.67;;
73084;SDS011;62974;49.460;10.892;2022-11-15T10:49:15;6.18;;;3.65;;
73084;SDS011;62974;49.460;10.892;2022-11-15T10:51:45;4.30;;;2.33;;
73084;SDS011;62974;49.460;10.892;2022-11-15T10:54:14;5.65;;;2.58;;
73084;SDS011;62974;49.460;10.892;2022-11-15T10:56:48;3.92;;;1.45;;
73084;SDS011;62974;49.460;10.892;2022-11-15T10:59:20;4.68;;;2.95;;
73084;SDS011;62974;49.460;10.892;2022-11-15T11:01:53;5.53;;;2.42;;
73084;SDS011;62974;49.460;10.892;2022-11-15T11:04:20;5.65;;;3.03;;
73084;SDS011;62974;49.460;10.892;2022-11-15T11:06:49;6.63;;;2.50;;
73084;SDS011;62974;49.460;10.892;2022-11-15T11:09:28;5.53;;;2.95;;
73084;SDS011;62974;49.460;10.892;2022-11-15T11:11:58;5.68;;;2.47;;
73084;SDS011;62974;49.460;10.892;2022-11-15T11:14:27;5.88;;;3.10;;
73084;SDS011;62974;49.460;10.892;2022-11-15T11:17:01;7.35;;;2.72;;
73084;SDS011;62974;49.460;10.892;2022-11-15T11:19:43;4.68;;;2.47;;
73084;SDS011;62974;49.460;10.892;2022-11-15T11:22:22;3.30;;;2.00;;
73084;SDS011;62974;49.460;10.892;2022-11-15T11:25:04;4.90;;;2.35;;
73084;SDS011;62974;49.460;10.892;2022-11-15T11:27:42;5.30;;;2.42;;
73084;SDS011;62974;49.460;10.892;2022-11-15T11:30:14;3.67;;;2.22;;
73084;SDS011;62974;49.460;10.892;2022-11-15T11:32:53;7.95;;;1.90;;
73084;SDS011;62974;49.460;10.892;2022-11-15T11:35:32;3.97;;;2.15;;
73084;SDS011;62974;49.460;10.892;2022-11-15T11:38:12;5.53;;;2.22;;
73084;SDS011;62974;49.460;10.892;2022-11-15T11:40:51;5.32;;;2.00;;
73084;SDS011;62974;49.460;10.892;2022-11-15T11:46:03;4.82;;;2.28;;
73084;SDS011;62974;49.460;10.892;2022-11-15T11:48:41;3.75;;;2.00;;
73084;SDS011;62974;49.460;10.892;2022-11-15T11:51:13;3.78;;;2.10;;
73084;SDS011;62974;49.460;10.892;2022-11-15T11:53:47;2.90;;;1.58;;
73084;SDS011;62974;49.460;10.892;2022-11-15T11:56:23;3.22;;;1.88;;
73084;SDS011;62974;49.460;10.892;2022-11-15T11:58:55;4.22;;;1.58;;
73084;SDS011;62974;49.460;10.892;2022-11-15T12:01:29;3.30;;;1.48;;
73084;SDS011;62974;49.460;10.892;2022-11-15T12:04:04;4.80;;;2.00;;
73084;SDS011;62974;49.460;10.892;2022-11-15T12:06:37;3.30;;;1.77;;
73084;SDS011;62974;49.460;10.892;2022-11-15T12:09:12;2.13;;;1.60;;
73084;SDS011;62974;49.460;10.892;2022-11-15T12:14:20;5.47;;;2.05;;
73084;SDS011;62974;49.460;10.892;2022-11-15T12:16:54;4.55;;;2.38;;
73084;SDS011;62974;49.460;10.892;2022-11-15T12:19:23;3.15;;;1.55;;
73084;SDS011;62974;49.460;10.892;2022-11-15T12:21:53;4.82;;;2.13;;
73084;SDS011;62974;49.460;10.892;2022-11-15T12:24:26;3.80;;;1.70;;
73084;SDS011;62974;49.460;10.892;2022-11-15T12:26:59;3.50;;;1.50;;
73084;SDS011;62974;49.460;10.892;2022-11-15T12:29:31;2.85;;;1.50;;
73084;SDS011;62974;49.460;10.892;2022-11-15T12:32:02;2.22;;;1.60;;
73084;SDS011;62974;49.460;10.892;2022-11-15T12:34:38;3.60;;;1.58;;
73084;SDS011;62974;49.460;10.892;2022-11-15T12:40:14;4.35;;;1.88;;
73084;SDS011;62974;49.460;10.892;2022-11-15T12:42:59;2.75;;;1.60;;
73084;SDS011;62974;49.460;10.892;2022-11-15T12:45:32;3.42;;;2.03;;
73084;SDS011;62974;49.460;10.892;2022-11-15T12:51:07;3.45;;;1.52;;
73084;SDS011;62974;49.460;10.892;2022-11-15T12:53:34;3.22;;;1.60;;
73084;SDS011;62974;49.460;10.892;2022-11-15T12:56:09;4.05;;;1.90;;
73084;SDS011;62974;49.460;10.892;2022-11-15T12:58:46;3.38;;;1.45;;
73084;SDS011;62974;49.460;10.892;2022-11-15T13:04:21;8.77;;;2.40;;
73084;SDS011;62974;49.460;10.892;2022-11-15T13:06:54;4.00;;;2.08;;
73084;SDS011;62974;49.460;10.892;2022-11-15T13:18:33;4.47;;;1.98;;
73084;SDS011;62974;49.460;10.892;2022-11-15T13:21:18;5.07;;;1.83;;
73084;SDS011;62974;49.460;10.892;2022-11-15T13:24:11;3.42;;;1.95;;
73084;SDS011;62974;49.460;10.892;2022-11-15T13:26:40;4.47;;;1.50;;
73084;SDS011;62974;49.460;10.892;2022-11-15T13:29:17;5.00;;;1.70;;
73084;SDS011;62974;49.460;10.892;2022-11-15T13:31:46;3.03;;;1.58;;
73084;SDS011;62974;49.460;10.892;2022-11-15T13:34:25;3.45;;;1.73;;
73084;SDS011;62974;49.460;10.892;2022-11-15T13:37:27;3.55;;;1.63;;
73084;SDS011;62974;49.460;10.892;2022-11-15T13:40:15;3.15;;;1.88;;
73084;SDS011;62974;49.460;10.892;2022-11-15T13:42:48;2.80;;;1.45;;
73084;SDS011;62974;49.460;10.892;2022-11-15T13:45:16;2.33;;;1.30;;
73084;SDS011;62974;49.460;10.892;2022-11-15T13:47:47;3.20;;;1.60;;
73084;SDS011;62974;49.460;10.892;2022-11-15T13:50:18;2.30;;;1.30;;
73084;SDS011;62974;49.460;10.892;2022-11-15T13:52:49;2.63;;;1.15;;
73084;SDS011;62974;49.460;10.892;2022-11-15T13:55:19;2.95;;;1.38;;
73084;SDS011;62974;49.460;10.892;2022-11-15T13:57:50;3.38;;;1.55;;
73084;SDS011;62974;49.460;10.892;2022-11-15T14:00:29;3.88;;;1.55;;
73084;SDS011;62974;49.460;10.892;2022-11-15T14:03:05;4.50;;;1.70;;
73084;SDS011;62974;49.460;10.892;2022-11-15T14:05:40;2.95;;;1.60;;
73084;SDS011;62974;49.460;10.892;2022-11-15T14:08:13;4.03;;;1.75;;
73084;SDS011;62974;49.460;10.892;2022-11-15T14:13:39;4.80;;;1.75;;
73084;SDS011;62974;49.460;10.892;2022-11-15T14:16:14;2.30;;;1.25;;
73084;SDS011;62974;49.460;10.892;2022-11-15T14:18:44;3.33;;;1.80;;
73084;SDS011;62974;49.460;10.892;2022-11-15T14:21:13;3.30;;;1.20;;
73084;SDS011;62974;49.460;10.892;2022-11-15T14:23:41;2.75;;;1.42;;
73084;SDS011;62974;49.460;10.892;2022-11-15T14:26:25;3.95;;;1.20;;
73084;SDS011;62974;49.460;10.892;2022-11-15T14:28:54;2.65;;;1.25;;
73084;SDS011;62974;49.460;10.892;2022-11-15T14:31:21;2.65;;;1.52;;
73084;SDS011;62974;49.460;10.892;2022-11-15T14:33:49;4.72;;;1.50;;
73084;SDS011;62974;49.460;10.892;2022-11-15T14:36:17;3.40;;;1.48;;
73084;SDS011;62974;49.460;10.892;2022-11-15T14:38:46;2.70;;;1.50;;
73084;SDS011;62974;49.460;10.892;2022-11-15T14:41:19;3.20;;;1.67;;
73084;SDS011;62974;49.460;10.892;2022-11-15T14:43:47;4.15;;;1.40;;
73084;SDS011;62974;49.460;10.892;2022-11-15T14:46:15;3.25;;;1.70;;
73084;SDS011;62974;49.460;10.892;2022-11-15T14:48:43;4.68;;;1.63;;
73084;SDS011;62974;49.460;10.892;2022-11-15T14:51:11;3.95;;;2.15;;
73084;SDS011;62974;49.460;10.892;2022-11-15T14:53:42;3.47;;;1.50;;
73084;SDS011;62974;49.460;10.892;2022-11-15T14:56:11;4.45;;;1.63;;
73084;SDS011;62974;49.460;10.892;2022-11-15T14:58:41;4.40;;;1.83;;
73084;SDS011;62974;49.460;10.892;2022-11-15T15:01:10;2.58;;;1.30;;
73084;SDS011;62974;49.460;10.892;2022-11-15T15:03:40;3.78;;;1.80;;
73084;SDS011;62974;49.460;10.892;2022-11-15T15:06:10;3.78;;;1.65;;
73084;SDS011;62974;49.460;10.892;2022-11-15T15:08:43;4.45;;;2.53;;
73084;SDS011;62974;49.460;10.892;2022-11-15T15:11:12;2.85;;;1.67;;
73084;SDS011;62974;49.460;10.892;2022-11-15T15:13:50;4.97;;;1.85;;
73084;SDS011;62974;49.460;10.892;2022-11-15T15:16:18;3.00;;;1.48;;
73084;SDS011;62974;49.460;10.892;2022-11-15T15:18:46;4.22;;;1.83;;
73084;SDS011;62974;49.460;10.892;2022-11-15T15:21:17;3.78;;;1.67;;
73084;SDS011;62974;49.460;10.892;2022-11-15T15:23:47;4.18;;;1.67;;
73084;SDS011;62974;49.460;10.892;2022-11-15T15:26:15;3.42;;;1.67;;
73084;SDS011;62974;49.460;10.892;2022-11-15T15:28:43;3.25;;;2.03;;
73084;SDS011;62974;49.460;10.892;2022-11-15T15:31:12;3.50;;;1.35;;
73084;SDS011;62974;49.460;10.892;2022-11-15T15:33:39;3.22;;;1.33;;
73084;SDS011;62974;49.460;10.892;2022-11-15T15:36:08;4.53;;;1.98;;
73084;SDS011;62974;49.460;10.892;2022-11-15T15:38:37;3.47;;;1.52;;
73084;SDS011;62974;49.460;10.892;2022-11-15T15:41:08;3.45;;;2.03;;
73084;SDS011;62974;49.460;10.892;2022-11-15T15:43:37;2.95;;;1.45;;